Table of current weather in Finland weather stations (FMI)

Data updated at Finland time 21.08.2019 02:45   Click the links in "Station" for forecasts

Station
 
Station name
 
 Loc 
 
Observed
 
Temp.
°C
Wind
m/s
From
 
Windchill
°C
Gusts
m/s
Humidity
%
Air pressure
hPa
Clouds
 
Conditions
 
Precip.
mm/1h
Snow
cm
100968 Helsinki-Vantaa Map 21.08 02:30 14.4 3.3 SW 13.7 4.0 100.0 1021.1 clear sky (0/8)
100971 Helsinki/Kaisaniemi Map 21.08 02:30 16.7 3.1 SW 16.5 5.4 89.0 1021.1 clear sky (0/8)
874863 Espoo/Tapiola Map 21.08 02:30 15.9 3.6 SW 15.4 5.8 92.0 1021.0 clear sky (0/8)
852678 Espoo/Nuuksio Map 21.08 02:30 12.8 1.8 S 12.6 3.2 99.0 1021.0 clear sky (0/8) Mist
151029 Mariehamn Map 21.08 02:30 16.6 2.2 SW 16.6 4.7 84.0 1018.8
100908 Utö Map 21.08 02:30 16.8 7.4 SW 15.6 9.1 89.0 1019.7 clear sky (0/8)
100949 Turku/Artukainen Map 21.08 02:30 14.9 1.1 S 14.9 2.0 96.0 1019.2 clear sky (0/8)
101247 Lappeenranta/Lepola Map 21.08 02:30 12.4 1.9 SW 12.0 4.1 88.0 1021.1 clear sky (0/8)
101254 Parikkala Map 21.08 02:30 12.5 2.3 SW 11.9 3.7 90.0 1021.0
101124 Tampere/Härmälä Map 21.08 02:30 13.7 94.0 1018.7 light clouds (3/8)
101339 Jyväskylä/Airport Map 21.08 02:30 9.7 1.4 SE 9.4 2.0 97.0 1018.6 clear sky (0/8) Mist
101632 Joensuu/Linnunlahti Map 21.08 02:30 14.4 83.0 1019.2 mostly clear (1/8)
101586 Kuopio/Savilahti Map 21.08 02:30 12.6 2.0 SW 12.2 3.4 93.0 1017.7 clear sky (0/8)
101485 Vaasa/Kemettilä Map 21.08 02:30 13.8 4.3 S 12.6 6.9 93.0 1014.2 clear sky (0/8)
126736 Kajaani/Petäisenniska Map 21.08 02:30 12.4 2.0 S 12.0 4.1 100.0 1016.4 clear sky (0/8)
101773 Kuhmo/Kalliojoki Map 21.08 02:30 9.0 0.8 S 9.0 1.3 99.0 1017.6 clear sky (0/8) Mist
101799 Oulu/Oulunsalo Map 21.08 02:30 10.1 1.9 S 9.4 3.8 100.0 1013.8 clear sky (0/8) Mist
101899 Kuusamo/Kiutaköngäs Map 21.08 02:30 9.3 3.2 S 7.5 4.5 100.0
101920 Rovaniemi/Airport Map 21.08 02:30 13.1 90.0
101966 Salla/Naruska Map 21.08 02:30 10.4 1.2 SE 10.4 2.7 100.0 1013.8
101994 Kittilä/Pokka Map 21.08 02:30 8.5 0.6 S 8.5 1.3 100.0 overcast (8/8)
102019 Enontekiö/Näkkälä Map 21.08 02:30 8.7 1.5 S 8.2 2.2 99.0 1010.9 not detectable (9/8) Fog
102052 Ivalo Map 21.08 02:30 10.4 0.9 SE 10.4 1.8 96.0 1010.9 cloudy (7/8)
102016 Enontekiö/Kilpisjärvi Map 21.08 02:30 6.2 0.9 SW 6.2 1.3 96.0 1011.5 clear sky (0/8)
102035 Utsjoki/Kevo Map 21.08 02:30 7.4 1.1 S 7.2 1.7 97.0 1010.7 partly cloudy (5/8) Mist